Airfield :
LOGIN :

Register | Disclaimer

   EN    FR    IT 

 










Legend :    VFR   Marginal VFR   IFR   Intensive IFR   Very Intensive IFR
Visi :
Ceiling :
>= 8 km
>= 3000ft
5 to 8 km
1000 to 3000 ft
1500m to 5 km
500 to 1000 ft
800 to 1500m
200 to 500 ft
< 800m
< 200 ft
Symbols :   Thunderstorms  Fog  Heavy snow  Heavy precipitations  Wind > 20 kt
SIGMETs :     Misc.  Thunderstorms  Icing  Turbulence  Mountain Waves  Volcanic Ashes






- Airport Elevation : 1906 ft
- IATA code : INN


LOWI - Innsbruck

CURRENT METAR :
  • 160650Z 27009KT 9999 FEW060 SCT100 BKN300 00/M02 Q1015 WS R26 NOSIG

EXPIRED METARs :
  • 160620Z 28012KT 9999 FEW065 BKN300 01/M02 Q1015 WS R26 NOSIG
  • 160550Z 28011KT 9999 FEW100 SCT300 01/M02 Q1015 NOSIG
  • 160520Z 28012KT 9999 FEW070 BKN220 00/M02 Q1015 NOSIG
  • 160450Z 27010KT 240V300 9999 FEW070 SCT150 00/M02 Q1015 NOSIG
  • 160420Z AUTO 29010KT 9999 FEW170 00/M02 Q1015

TAF TAF LOWI
Valid from the 16 at 06:00 until the 17 at 06:00 UTC


160515Z 1606/1706 27010KT 9999 FEW070 SCT100 BKN300 TX14/1613Z TN00/1606Z
TEMPO 1611/1617 12015G30KT
BECMG 1617/1619 VRB10G20KT
PROB40
TEMPO 1700/1706 10015G30KT



MET'MAP, your aeronautical weather chart ! - Copyright ORBIFLY December 2007 - Disclaimer

ORBIFLY MET'MAP TEAM :

Programming & Development : Alexandra Zaïnal
Concept & original design : Baudouin d'Aumeries
Assistance for programming : Marc-Olivier Méhu
Technical & hardware support : Manuel Goepfert

Contact : metmap@orbifly.com




SOURCES & CREDITS :

   NOAA